createdAt,value
2023-01-05T00:00:53.590Z,303.92
2023-01-05T00:06:00.713Z,303.93
2023-01-05T00:11:07.931Z,304.81
2023-01-05T00:16:15.185Z,305.36
2023-01-05T00:21:22.300Z,306.26
2023-01-05T00:26:29.512Z,308.41
2023-01-05T00:31:36.810Z,308.71
2023-01-05T00:36:43.946Z,309.78
2023-01-05T00:41:51.193Z,308.98
2023-01-05T00:46:58.381Z,309.08
2023-01-05T00:52:05.562Z,311.41
2023-01-05T00:57:12.757Z,309.74
2023-01-05T01:02:20.149Z,310.77
2023-01-05T01:07:27.181Z,312.42
2023-01-05T01:12:34.431Z,311.97
2023-01-05T01:17:41.639Z,313.63
2023-01-05T01:22:48.787Z,313.59
2023-01-05T01:27:55.990Z,313.68
2023-01-05T01:33:03.188Z,313.83
2023-01-05T01:38:10.335Z,314.21
2023-01-05T01:43:17.612Z,315.82
2023-01-05T01:48:24.873Z,315.11
2023-01-05T01:53:31.998Z,315.66
2023-01-05T01:58:39.243Z,316.35
2023-01-05T02:03:46.514Z,316.93
2023-01-05T02:08:53.659Z,317.61
2023-01-05T02:14:00.857Z,318.97
2023-01-05T02:19:08.084Z,318.94
2023-01-05T02:24:15.268Z,319.33
2023-01-05T02:29:22.446Z,318.94
2023-01-05T02:34:29.677Z,320.15
2023-01-05T02:39:36.869Z,319.37
2023-01-05T02:44:44.083Z,320.58
2023-01-05T02:49:51.362Z,321.76
2023-01-05T02:54:58.582Z,318.62
2023-01-05T03:00:05.813Z,320.11
2023-01-05T03:05:13.028Z,320.61
2023-01-05T03:10:20.209Z,321.58
2023-01-05T03:15:27.407Z,321.40
2023-01-05T03:20:34.612Z,319.24
2023-01-05T03:25:41.795Z,319.42
2023-01-05T03:30:49.065Z,319.23
2023-01-05T03:35:56.247Z,317.85
2023-01-05T03:41:03.440Z,316.54
2023-01-05T03:46:10.755Z,316.33
2023-01-05T03:51:17.932Z,316.26
2023-01-05T03:56:25.143Z,316.97
2023-01-05T04:01:32.483Z,317.65
2023-01-05T04:06:39.572Z,317.99
2023-01-05T04:11:46.752Z,317.82
2023-01-05T04:16:53.961Z,317.21
2023-01-05T04:22:01.192Z,317.37
2023-01-05T04:27:08.324Z,319.22
2023-01-05T04:32:15.588Z,319.73
2023-01-05T04:37:22.757Z,320.40
2023-01-05T04:42:29.961Z,319.58
2023-01-05T04:47:37.106Z,320.24
2023-01-05T04:52:44.315Z,321.61
2023-01-05T04:57:51.516Z,321.80
2023-01-05T05:02:58.966Z,320.46
2023-01-05T05:08:05.978Z,321.43
2023-01-05T05:13:13.160Z,319.66
2023-01-05T05:18:20.535Z,317.26
2023-01-05T05:23:27.770Z,319.45
2023-01-05T05:28:34.942Z,318.24
2023-01-05T05:33:42.108Z,318.57
2023-01-05T05:38:49.326Z,318.15
2023-01-05T05:43:56.649Z,318.88
2023-01-05T05:49:03.855Z,317.88
2023-01-05T05:54:11.110Z,319.11
2023-01-05T05:59:18.258Z,319.43
2023-01-05T06:04:25.476Z,319.11
2023-01-05T06:09:32.689Z,318.09
2023-01-05T06:14:39.873Z,317.67
2023-01-05T06:19:47.083Z,316.61
2023-01-05T06:24:54.307Z,316.32
2023-01-05T06:30:01.553Z,315.24
2023-01-05T06:35:08.805Z,316.70
2023-01-05T06:40:16.047Z,315.98
2023-01-05T06:45:23.478Z,315.66
2023-01-05T06:50:30.610Z,316.54
2023-01-05T06:55:37.888Z,314.97
2023-01-05T07:00:45.180Z,313.97
2023-01-05T07:05:52.348Z,314.76
2023-01-05T07:10:59.553Z,313.53
2023-01-05T07:16:06.785Z,315.09
2023-01-05T07:21:13.960Z,313.77
2023-01-05T07:26:21.176Z,312.16
2023-01-05T07:31:28.384Z,312.32
2023-01-05T07:36:35.597Z,310.45
2023-01-05T07:41:42.847Z,310.73
2023-01-05T07:46:50.021Z,310.67
2023-01-05T07:51:57.270Z,309.91
2023-01-05T07:57:04.485Z,310.57
2023-01-05T08:02:11.907Z,309.39
2023-01-05T08:07:18.804Z,309.37
2023-01-05T08:12:26.009Z,307.37
2023-01-05T08:17:33.141Z,308.21
2023-01-05T08:22:40.508Z,305.43
2023-01-05T08:27:47.757Z,305.90
2023-01-05T08:32:54.928Z,303.56
2023-01-05T08:38:02.142Z,303.57
2023-01-05T08:43:09.368Z,303.20
2023-01-05T08:48:16.553Z,302.38
2023-01-05T08:53:23.813Z,303.35
2023-01-05T08:58:31.045Z,302.43
2023-01-05T09:03:38.314Z,302.65
2023-01-05T09:08:45.485Z,303.36
2023-01-05T09:13:52.780Z,303.99
2023-01-05T09:19:00.031Z,304.07
2023-01-05T09:24:07.255Z,304.38
2023-01-05T09:29:14.565Z,304.43
2023-01-05T09:34:21.788Z,304.60
2023-01-05T09:39:29.255Z,305.22
2023-01-05T09:44:36.644Z,305.47
2023-01-05T09:49:43.739Z,305.08
2023-01-05T09:54:50.919Z,304.94
2023-01-05T09:59:58.315Z,305.04
2023-01-05T10:05:05.701Z,304.39
2023-01-05T10:10:12.628Z,304.90
2023-01-05T10:15:19.818Z,304.97
2023-01-05T10:20:27.054Z,303.26
2023-01-05T10:25:34.279Z,305.75
2023-01-05T10:30:41.671Z,305.52
2023-01-05T10:36:00.548Z,303.73
2023-01-05T10:40:56.020Z,303.90
2023-01-05T10:46:31.204Z,304.23
2023-01-05T10:51:10.407Z,304.64
2023-01-05T10:56:17.564Z,304.36
2023-01-05T11:01:25.136Z,304.83
2023-01-05T11:06:31.971Z,304.87
2023-01-05T11:11:39.209Z,305.40
2023-01-05T11:16:46.510Z,305.41
2023-01-05T11:21:59.759Z,306.28
2023-01-05T11:27:00.785Z,306.21
2023-01-05T11:32:08.152Z,306.28
2023-01-05T11:37:15.228Z,305.25
2023-01-05T11:42:25.739Z,305.03
2023-01-05T11:47:29.803Z,305.01
2023-01-05T11:52:36.929Z,304.91
2023-01-05T11:57:44.126Z,305.91
2023-01-05T12:02:51.499Z,305.91
2023-01-05T12:07:58.540Z,306.08
2023-01-05T12:13:05.769Z,306.01
2023-01-05T12:18:13.001Z,305.53
2023-01-05T12:23:20.183Z,305.72
2023-01-05T12:28:40.668Z,306.41
2023-01-05T12:38:41.757Z,307.67
2023-01-05T12:43:48.907Z,307.75
2023-01-05T12:48:56.197Z,307.81
2023-01-05T12:54:03.275Z,307.95
2023-01-05T12:59:10.486Z,308.89
2023-01-05T13:04:17.830Z,309.15
2023-01-05T13:09:24.915Z,308.60
2023-01-05T13:14:32.192Z,310.10
2023-01-05T13:19:39.522Z,310.10
2023-01-05T13:24:46.600Z,310.03
2023-01-05T13:29:53.794Z,309.91
2023-01-05T13:35:01.202Z,310.45
2023-01-05T13:40:08.362Z,310.73
2023-01-05T13:45:15.656Z,310.51
2023-01-05T13:50:22.945Z,309.87
2023-01-05T13:55:30.012Z,310.39
2023-01-05T14:00:37.273Z,310.93
2023-01-05T14:05:44.588Z,309.37
2023-01-05T14:10:51.665Z,308.95
2023-01-05T14:15:58.861Z,309.29
2023-01-05T14:21:06.183Z,309.31
2023-01-05T14:26:13.283Z,309.14
2023-01-05T14:31:20.546Z,308.76
2023-01-05T14:36:27.872Z,308.43
2023-01-05T14:41:34.993Z,308.17
2023-01-05T14:46:42.139Z,307.83
2023-01-05T14:51:49.478Z,307.75
2023-01-05T14:56:56.504Z,307.86
2023-01-05T15:02:03.779Z,307.31
2023-01-05T15:07:11.122Z,307.47
2023-01-05T15:12:18.418Z,306.87
2023-01-05T15:17:25.639Z,306.58
2023-01-05T15:22:38.332Z,306.34
2023-01-05T15:27:40.035Z,306.23
2023-01-05T15:32:47.272Z,305.92
2023-01-05T15:37:54.675Z,304.88
2023-01-05T15:43:01.780Z,305.55
2023-01-05T15:48:09.416Z,305.58
2023-01-05T15:53:16.285Z,306.23
2023-01-05T15:58:23.410Z,306.46
2023-01-05T16:03:30.631Z,305.95
2023-01-05T16:08:38.004Z,305.66
2023-01-05T16:13:45.107Z,304.99
2023-01-05T16:18:52.340Z,305.20
2023-01-05T16:23:59.520Z,305.36
2023-01-05T16:29:06.697Z,305.14
2023-01-05T16:34:13.972Z,304.16
2023-01-05T16:39:21.326Z,304.30
2023-01-05T16:44:28.443Z,304.00
2023-01-05T16:49:37.357Z,304.85
2023-01-05T16:54:43.094Z,304.44
2023-01-05T16:59:50.163Z,303.53
2023-01-05T17:04:57.332Z,303.23
2023-01-05T17:10:04.695Z,303.28
2023-01-05T17:15:11.748Z,304.31
2023-01-05T17:20:19.163Z,303.98
2023-01-05T17:25:26.488Z,303.99
2023-01-05T17:30:33.700Z,303.74
2023-01-05T17:35:40.902Z,304.18
2023-01-05T17:40:48.501Z,304.80
2023-01-05T17:45:55.820Z,304.63
2023-01-05T17:51:03.104Z,304.54
2023-01-05T17:56:11.600Z,303.60
2023-01-05T18:01:19.017Z,303.07
2023-01-05T18:06:26.237Z,303.54
2023-01-05T18:16:40.634Z,302.69
2023-01-05T18:21:47.824Z,302.58
2023-01-05T18:26:55.988Z,302.69
2023-01-05T18:32:02.740Z,302.58
2023-01-05T18:37:20.280Z,303.51
2023-01-05T18:42:17.267Z,303.90
2023-01-05T18:47:24.364Z,303.90
2023-01-05T18:52:31.603Z,303.55
2023-01-05T18:57:39.042Z,303.57
2023-01-05T19:02:46.158Z,302.97
2023-01-05T19:07:53.375Z,304.31
2023-01-05T19:13:00.645Z,304.56
2023-01-05T19:18:07.773Z,305.07
2023-01-05T19:23:14.979Z,304.76
2023-01-05T19:28:22.472Z,304.72
2023-01-05T19:33:29.663Z,305.11
2023-01-05T19:38:36.875Z,305.44
2023-01-05T19:43:44.188Z,306.15
2023-01-05T19:48:51.292Z,306.15
2023-01-05T19:53:58.782Z,306.63
2023-01-05T19:59:06.265Z,306.63
2023-01-05T20:04:13.295Z,307.17
2023-01-05T20:09:20.523Z,307.57
2023-01-05T20:14:27.825Z,308.29
2023-01-05T20:19:34.918Z,308.11
2023-01-05T20:24:42.135Z,308.24
2023-01-05T20:29:49.748Z,308.44
2023-01-05T20:34:57.264Z,308.11
2023-01-05T20:40:04.731Z,308.74
2023-01-05T20:45:12.841Z,308.48
2023-01-05T20:50:19.080Z,308.71
2023-01-05T20:55:26.287Z,308.46
2023-01-05T21:00:33.686Z,308.05
2023-01-05T21:05:40.679Z,308.32
2023-01-05T21:10:47.901Z,308.55
2023-01-05T21:15:55.271Z,308.54
2023-01-05T21:21:02.274Z,308.48
2023-01-05T21:26:13.627Z,308.67
2023-01-05T21:31:16.919Z,308.87
2023-01-05T21:36:24.030Z,308.71
2023-01-05T21:41:31.305Z,308.67
2023-01-05T21:46:38.664Z,309.47
2023-01-05T21:51:45.751Z,309.59
2023-01-05T21:56:52.930Z,309.89
2023-01-05T22:02:00.253Z,310.24
2023-01-05T22:07:07.473Z,309.89
2023-01-05T22:12:14.596Z,309.45
2023-01-05T22:17:21.914Z,309.70
2023-01-05T22:22:29.065Z,309.48
2023-01-05T22:27:36.290Z,310.01
2023-01-05T22:32:43.617Z,309.97
2023-01-05T22:37:50.657Z,310.26
2023-01-05T22:42:57.896Z,310.89
2023-01-05T22:48:05.205Z,311.20
2023-01-05T22:53:12.341Z,311.59
2023-01-05T22:58:19.494Z,311.73
2023-01-05T23:03:26.824Z,312.67
2023-01-05T23:08:33.909Z,312.97
2023-01-05T23:13:41.127Z,313.53
2023-01-05T23:18:48.504Z,314.27
2023-01-05T23:23:55.575Z,314.78
2023-01-05T23:29:02.804Z,314.70
2023-01-05T23:34:10.136Z,315.94
2023-01-05T23:39:17.228Z,315.77
2023-01-05T23:44:24.445Z,316.47
2023-01-05T23:49:31.781Z,317.11
2023-01-05T23:54:38.888Z,317.44
2023-01-05T23:59:46.091Z,317.60
